KXNA/XNA METAR and TAF weather

Enter ICAO airport designator
Station Type Date Time Source
KXNA METAR 2020/06/05 11:53 UTC NOAA

KXNA 051153Z 8SM CLR 21/19 A2993 RMK AO2 SLP120 70086 T02060194 10233 20206 53019


Station Type Date Time Source
KXNA Decoded METAR 2020/06/05 11:53 UTC NOAA

NORTHWEST ARKANSAS REGIONAL, AR, United States (KXNA) 36-17N 94-18W
Jun 05, 2020 - 07:53 AM EDT / 2020.06.05 1153 UTC
Visibility: 8 mile(s):0
Sky conditions: clear
Temperature: 69.1 F (20.6 C)
Dew Point: 66.9 F (19.4 C)
Relative Humidity: 92%
Pressure (altimeter): 29.93 in. Hg (1013 hPa)
Pressure tendency: 0.06 inches (1.9 hPa) higher than three hours ago
ob: KXNA 051153Z 8SM CLR 21/19 A2993 RMK AO2 SLP120 70086 T02060194 10233 20206 53019
cycle: 12

Station Type Date Time Source
KXNA TAF 2020/06/05 12:27 UTC NOAA

TAF KXNA 051124Z 0512/0612 22007KT P6SM FEW250
FM060200 20004KT P6SM SCT040 PROB30 0602/0605 05010G20KT 3SM -TSRA BKN035CB
FM060700 VRB03KT P6SM FEW250

Example: see airport list